Aviation Digital Data Service (ADDS)

Output produced by METARs form (1240 UTC 24 April 2014)
found at http://aviationweather.gov/adds/metars/
 
KSLK 241126Z 2412/2512 32008G15KT P6SM SKC 
     FM241400 33014G20KT P6SM SCT050 
     FM242300 32007KT P6SM SKC 
     FM250100 VRB03KT P6SM SKC